createdAt,value
2023-03-26T00:02:01.531Z,6.80
2023-03-26T00:07:04.298Z,6.90
2023-03-26T00:12:06.988Z,6.80
2023-03-26T00:17:09.402Z,6.90
2023-03-26T00:27:17.632Z,6.80
2023-03-26T00:37:26.853Z,6.90
2023-03-26T00:42:29.878Z,6.90
2023-03-26T00:47:32.452Z,7.00
2023-03-26T00:52:36.222Z,7.00
2023-03-26T01:02:45.358Z,6.90
2023-03-26T01:07:48.148Z,6.90
2023-03-26T01:12:50.798Z,7.00
2023-03-26T01:17:57.933Z,6.90
2023-03-26T01:23:05.440Z,6.90
2023-03-26T01:28:12.625Z,6.90
2023-03-26T01:33:16.236Z,6.90
2023-03-26T01:38:40.051Z,6.60
2023-03-26T01:43:54.311Z,6.70
2023-03-26T01:54:01.922Z,6.20
2023-03-26T01:59:16.351Z,6.30
2023-03-26T02:04:37.691Z,6.30
2023-03-26T02:09:45.945Z,6.40
2023-03-26T02:14:49.155Z,6.60
2023-03-26T02:24:54.897Z,6.60
2023-03-26T02:29:58.572Z,6.70
2023-03-26T02:40:10.901Z,6.80
2023-03-26T02:45:16.369Z,6.80
2023-03-26T02:50:39.398Z,6.80
2023-03-26T02:56:01.039Z,6.80
2023-03-26T03:01:09.894Z,6.70
2023-03-26T03:06:22.582Z,6.60
2023-03-26T03:11:27.672Z,6.50
2023-03-26T03:16:31.208Z,6.70
2023-03-26T03:21:39.196Z,6.70
2023-03-26T03:26:45.707Z,6.80
2023-03-26T03:32:08.921Z,6.80
2023-03-26T03:37:22.072Z,6.70
2023-03-26T03:42:28.546Z,6.70
2023-03-26T03:47:34.867Z,6.90
2023-03-26T03:52:37.737Z,6.90
2023-03-26T03:57:40.947Z,7.00
2023-03-26T04:02:48.705Z,6.90
2023-03-26T04:07:51.685Z,6.90
2023-03-26T04:13:14.620Z,7.00
2023-03-26T04:18:38.373Z,6.90
2023-03-26T04:23:47.821Z,6.80
2023-03-26T04:29:17.833Z,6.80
2023-03-26T04:34:26.190Z,6.80
2023-03-26T04:39:50.212Z,6.70
2023-03-26T04:45:15.605Z,6.60
2023-03-26T04:50:21.010Z,6.50
2023-03-26T04:55:37.675Z,6.50
2023-03-26T05:05:53.045Z,6.50
2023-03-26T05:10:56.687Z,6.50
2023-03-26T05:16:06.604Z,6.60
2023-03-26T05:21:15.521Z,6.70
2023-03-26T05:26:19.674Z,7.00
2023-03-26T05:31:22.682Z,7.00
2023-03-26T05:36:28.720Z,7.00
2023-03-26T05:41:42.462Z,7.10
2023-03-26T05:46:45.320Z,7.30
2023-03-26T05:51:56.102Z,7.40
2023-03-26T05:57:11.729Z,7.50
2023-03-26T06:02:33.822Z,7.30
2023-03-26T06:07:56.380Z,7.30
2023-03-26T06:13:06.058Z,7.50
2023-03-26T06:18:11.585Z,7.70
2023-03-26T06:23:35.994Z,7.70
2023-03-26T06:28:51.868Z,8.00
2023-03-26T06:34:20.315Z,8.20
2023-03-26T06:39:23.328Z,8.40
2023-03-26T06:44:43.361Z,8.50
2023-03-26T06:49:54.811Z,8.60
2023-03-26T06:55:23.754Z,8.60
2023-03-26T07:01:04.704Z,8.80
2023-03-26T07:06:26.494Z,8.80
2023-03-26T07:11:58.658Z,9.10
2023-03-26T07:17:19.652Z,9.40
2023-03-26T07:22:28.816Z,9.80
2023-03-26T07:27:59.812Z,9.80
2023-03-26T07:33:27.163Z,9.60
2023-03-26T07:38:52.248Z,9.60
2023-03-26T07:44:38.655Z,9.80
2023-03-26T07:50:08.483Z,10.00
2023-03-26T07:55:30.577Z,10.70
2023-03-26T08:01:18.317Z,10.10
2023-03-26T08:06:34.127Z,9.60
2023-03-26T08:11:49.673Z,9.40
2023-03-26T08:17:17.422Z,9.90
2023-03-26T08:22:27.390Z,10.20
2023-03-26T08:27:43.921Z,10.00
2023-03-26T08:32:56.349Z,10.20
2023-03-26T08:37:59.269Z,10.60
2023-03-26T08:43:57.435Z,10.90
2023-03-26T08:49:29.701Z,11.50
2023-03-26T08:54:51.531Z,11.70
2023-03-26T09:00:15.998Z,11.50
2023-03-26T09:05:38.624Z,11.90
2023-03-26T09:11:25.617Z,12.40
2023-03-26T09:17:04.064Z,12.00
2023-03-26T09:22:47.748Z,11.70
2023-03-26T09:28:08.524Z,11.60
2023-03-26T09:33:47.150Z,11.30
2023-03-26T09:39:19.225Z,11.70
2023-03-26T09:44:28.091Z,11.90
2023-03-26T09:50:15.625Z,11.80
2023-03-26T09:55:20.249Z,11.90
2023-03-26T10:00:50.087Z,12.10
2023-03-26T10:06:08.459Z,12.50
2023-03-26T10:11:17.223Z,12.50
2023-03-26T10:16:44.721Z,12.20
2023-03-26T10:22:14.484Z,12.30
2023-03-26T10:27:48.977Z,12.50
2023-03-26T10:33:15.489Z,12.50
2023-03-26T10:38:51.478Z,13.00
2023-03-26T10:44:12.690Z,12.80
2023-03-26T10:49:34.002Z,10.20
2023-03-26T10:55:18.471Z,8.80
2023-03-26T11:00:27.071Z,9.00
2023-03-26T11:06:02.880Z,9.30
2023-03-26T11:11:13.762Z,9.60
2023-03-26T11:16:32.022Z,10.30
2023-03-26T11:21:49.568Z,11.30
2023-03-26T11:26:56.814Z,11.60
2023-03-26T11:32:31.991Z,11.90
2023-03-26T11:37:38.636Z,12.20
2023-03-26T11:42:43.033Z,13.70
2023-03-26T11:47:56.825Z,12.10
2023-03-26T11:53:10.712Z,12.50
2023-03-26T11:58:27.861Z,12.50
2023-03-26T12:03:30.442Z,12.30
2023-03-26T12:08:43.373Z,12.30
2023-03-26T12:13:59.731Z,11.70
2023-03-26T12:19:24.655Z,12.00
2023-03-26T12:24:33.773Z,12.00
2023-03-26T12:29:36.276Z,11.70
2023-03-26T12:34:40.097Z,12.10
2023-03-26T12:40:10.817Z,12.20
2023-03-26T12:45:06.912Z,12.20
2023-03-26T12:50:14.719Z,12.20
2023-03-26T12:55:38.896Z,12.20
2023-03-26T13:00:47.584Z,12.60
2023-03-26T13:06:15.482Z,12.30
2023-03-26T13:11:30.686Z,12.40
2023-03-26T13:16:56.913Z,12.20
2023-03-26T13:22:27.166Z,11.90
2023-03-26T13:28:03.355Z,11.60
2023-03-26T13:33:38.671Z,11.80
2023-03-26T13:38:58.975Z,11.70
2023-03-26T13:44:31.656Z,11.70
2023-03-26T13:49:54.885Z,12.00
2023-03-26T13:55:15.375Z,12.00
2023-03-26T14:00:27.611Z,11.90
2023-03-26T14:06:00.232Z,11.80
2023-03-26T14:11:12.484Z,12.30
2023-03-26T14:16:18.756Z,12.30
2023-03-26T14:21:51.065Z,12.30
2023-03-26T14:27:20.042Z,13.50
2023-03-26T14:32:31.898Z,11.80
2023-03-26T14:37:42.978Z,11.70
2023-03-26T14:43:22.879Z,11.60
2023-03-26T14:48:39.201Z,11.50
2023-03-26T14:53:52.400Z,11.60
2023-03-26T14:59:12.590Z,11.70
2023-03-26T15:04:43.732Z,11.80
2023-03-26T15:09:58.594Z,11.80
2023-03-26T15:15:26.027Z,11.60
2023-03-26T15:20:50.780Z,11.60
2023-03-26T15:26:07.831Z,11.70
2023-03-26T15:31:48.351Z,11.60
2023-03-26T15:37:13.638Z,11.20
2023-03-26T15:42:27.852Z,10.70
2023-03-26T15:47:36.318Z,10.30
2023-03-26T15:52:52.172Z,10.00
2023-03-26T15:58:03.334Z,9.80
2023-03-26T16:03:31.028Z,9.70
2023-03-26T16:08:39.320Z,9.50
2023-03-26T16:14:02.681Z,9.20
2023-03-26T16:19:36.241Z,9.10
2023-03-26T16:24:44.694Z,8.90
2023-03-26T16:30:00.833Z,8.80
2023-03-26T16:35:15.638Z,8.50
2023-03-26T16:40:18.376Z,8.30
2023-03-26T16:45:50.383Z,8.00
2023-03-26T16:51:21.969Z,7.70
2023-03-26T16:56:53.463Z,7.40
2023-03-26T17:02:13.792Z,7.10
2023-03-26T17:07:29.741Z,6.70
2023-03-26T17:12:32.298Z,6.40
2023-03-26T17:18:04.968Z,6.10
2023-03-26T17:23:17.672Z,5.40
2023-03-26T17:28:40.600Z,5.50
2023-03-26T17:33:43.562Z,5.10
2023-03-26T17:38:46.429Z,4.90
2023-03-26T17:43:50.974Z,4.80
2023-03-26T17:49:01.031Z,4.60
2023-03-26T17:54:08.518Z,4.50
2023-03-26T17:59:23.125Z,4.30
2023-03-26T18:04:37.975Z,4.20
2023-03-26T18:09:59.448Z,4.10
2023-03-26T18:15:11.282Z,4.10
2023-03-26T18:20:23.297Z,4.30
2023-03-26T18:25:33.807Z,4.20
2023-03-26T18:30:47.017Z,4.10
2023-03-26T18:35:56.274Z,4.10
2023-03-26T18:40:59.348Z,3.70
2023-03-26T18:46:03.520Z,3.80
2023-03-26T18:51:07.264Z,3.60
2023-03-26T18:56:29.053Z,3.90
2023-03-26T19:01:36.613Z,3.80
2023-03-26T19:06:42.904Z,3.70
2023-03-26T19:16:56.449Z,2.90
2023-03-26T19:27:03.898Z,2.50
2023-03-26T19:32:16.316Z,2.30
2023-03-26T19:37:25.273Z,2.30
2023-03-26T19:42:43.997Z,2.20
2023-03-26T19:47:57.312Z,2.20
2023-03-26T19:53:24.330Z,2.40
2023-03-26T19:58:28.057Z,2.20
2023-03-26T20:03:41.847Z,2.10
2023-03-26T20:08:45.911Z,1.90
2023-03-26T20:13:49.257Z,2.40
2023-03-26T20:18:51.903Z,2.70
2023-03-26T20:23:55.923Z,2.90
2023-03-26T20:28:58.941Z,3.00
2023-03-26T20:34:01.467Z,3.10
2023-03-26T20:39:08.115Z,3.20
2023-03-26T20:44:15.215Z,3.30
2023-03-26T20:49:18.454Z,3.40
2023-03-26T20:54:23.805Z,3.60
2023-03-26T20:59:27.955Z,3.70
2023-03-26T21:04:30.671Z,3.80
2023-03-26T21:09:34.284Z,3.80
2023-03-26T21:14:43.541Z,3.60
2023-03-26T21:19:47.138Z,3.60
2023-03-26T21:24:59.109Z,3.60
2023-03-26T21:30:02.494Z,3.70
2023-03-26T21:35:08.683Z,3.90
2023-03-26T21:40:17.029Z,4.00
2023-03-26T21:45:20.580Z,4.20
2023-03-26T21:50:23.967Z,4.30
2023-03-26T21:55:27.118Z,4.40
2023-03-26T22:00:43.667Z,4.40
2023-03-26T22:06:31.375Z,4.50
2023-03-26T22:11:34.112Z,4.40
2023-03-26T22:16:36.823Z,4.50
2023-03-26T22:21:42.758Z,4.50
2023-03-26T22:26:45.490Z,4.50
2023-03-26T22:31:48.123Z,4.60
2023-03-26T22:36:50.793Z,4.70
2023-03-26T22:41:53.531Z,4.80
2023-03-26T22:46:57.012Z,4.80
2023-03-26T22:51:59.485Z,4.80
2023-03-26T22:57:02.786Z,4.80
2023-03-26T23:02:06.243Z,4.90
2023-03-26T23:07:09.676Z,4.90
2023-03-26T23:12:12.243Z,4.90
2023-03-26T23:17:15.814Z,4.90
2023-03-26T23:22:18.397Z,4.80
2023-03-26T23:27:22.660Z,4.70
2023-03-26T23:32:25.461Z,4.70
2023-03-26T23:37:29.519Z,4.80
2023-03-26T23:42:34.560Z,4.70
2023-03-26T23:47:37.413Z,4.60
2023-03-26T23:52:39.964Z,4.60
2023-03-26T23:57:43.229Z,4.50
